• Join FlightAware (Why Join?)
  • Login
  • US Flag 
09:46PM EST


 

Airport Tracker/Info


-or-


 

Live Flight TrackerFlight Track Log ✈ N24BE ✈ 28-Jul-2014 ✈ KJKA - KMBO

Flight Track Log - Related Links

Times and Time Zones

All times are in EDT time to prevent confusion due to time zone crossing. See the N24BE flight status page for this flight to view local times or setup timezone preferences in your user account.

Time Position Orientation Groundspeed Altitude Reporting Facility
EDT Latitude Longitude Course Direction KTS MPH feet Rate Location/Type
01:03PM 30.2969 -87.6964 319° Northwest 94 108 1,300  Level Jacksonville Center
01:04PM 30.3172 -87.7167 319° Northwest 104 120 2,000 720 Climbing Jacksonville Center
01:05PM 30.3419 -87.7375 324° Northwest 99 114 3,000 780 Climbing Houston Center
01:06PM 30.3592 -87.7597 312° West 96 110 3,900 840 Climbing Houston Center
01:07PM 30.3792 -87.7864 311° West 95 109 4,800 840 Climbing Houston Center
01:08PM 30.3986 -87.8069 318° Northwest 95 109 5,700 720 Climbing Houston Center
01:09PM 30.4211 -87.8219 330° Northwest 94 108 6,300 600 Climbing Houston Center
01:10PM 30.4408 -87.8411 320° Northwest 94 108 7,000 600 Climbing Houston Center
01:11PM 30.4594 -87.8658 311° West 99 114 7,600 480 Climbing Houston Center
01:12PM 30.4789 -87.8914 311° West 103 119 8,100 240 Climbing Houston Center
01:13PM 30.5067 -87.9300 310° West 134 154 8,100  Level Houston Center
01:14PM 30.5367 -87.9633 316° Northwest 145 167 8,100  Level Houston Center
01:15PM 30.5650 -88.0019 310° West 154 177 8,100  Level Houston Center
01:16PM 30.5958 -88.0353 317° Northwest 154 177 8,100  Level Houston Center
01:18PM 30.6308 -88.0667 322° Northwest 155 178 8,100  Level Houston Center
01:19PM 30.6631 -88.0989 319° Northwest 155 178 8,100  Level Houston Center
01:20PM 30.7014 -88.1403 317° Northwest 156 180 8,100  Level Houston Center
01:21PM 30.7353 -88.1722 321° Northwest 156 180 8,100  Level Houston Center
01:22PM 30.7697 -88.2017 324° Northwest 156 180 8,100 -60 Level Houston Center
01:23PM 30.8025 -88.2344 319° Northwest 156 180 8,000  Descending Houston Center
01:24PM 30.8314 -88.2694 314° West 155 178 8,100  Climbing Houston Center
01:25PM 30.8608 -88.3072 312° West 155 178 8,100  Level Houston Center
01:26PM 30.8911 -88.3428 315° West 155 178 8,100  Level Houston Center
01:27PM 30.9269 -88.3869 313° West 155 178 8,100  Level Houston Center
01:28PM 30.9553 -88.4247 311° West 155 178 8,100  Level Houston Center
01:29PM 30.9878 -88.4592 318° Northwest 155 178 8,100  Level Houston Center
01:30PM 31.0303 -88.4700 348° North 157 181 8,100  Level Houston Center
01:31PM 31.0728 -88.4783 350° North 157 181 8,100  Level Houston Center
01:32PM 31.1058 -88.5092 321° Northwest 154 177 8,100 -60 Level Houston Center
01:33PM 31.1386 -88.5422 319° Northwest 154 177 8,000 -60 Descending Houston Center
01:34PM 31.1806 -88.5739 327° Northwest 154 177 8,000  Level Houston Center
01:35PM 31.2156 -88.5992 328° Northwest 152 175 8,100  Climbing Houston Center
01:36PM 31.2442 -88.6367 312° West 152 175 8,100  Level Houston Center
01:37PM 31.2722 -88.6711 314° West 151 174 8,100  Level Houston Center
01:38PM 31.3022 -88.7061 315° West 151 174 8,100  Level Houston Center
01:39PM 31.3314 -88.7392 316° Northwest 150 173 8,100  Level Houston Center
01:40PM 31.3606 -88.7717 316° Northwest 149 171 8,100  Level Houston Center
01:41PM 31.3964 -88.8111 317° Northwest 149 171 8,100  Level Houston Center
01:42PM 31.4231 -88.8464 312° West 148 170 8,100  Level Houston Center
01:43PM 31.4494 -88.8833 310° West 147 169 8,100  Level Houston Center
01:44PM 31.4778 -88.9175 314° West 148 170 8,100  Level Houston Center
01:45PM 31.5061 -88.9525 314° West 147 169 8,100  Level Houston Center
01:46PM 31.5347 -88.9864 315° West 147 169 8,100  Level Houston Center
01:47PM 31.5692 -89.0283 314° West 147 169 8,100  Level Houston Center
01:48PM 31.5986 -89.0625 315° West 147 169 8,100  Level Houston Center
01:50PM 31.6267 -89.0964 314° West 147 169 8,100  Level Houston Center
01:50PM 31.6497 -89.1258 313° West 148 170 8,200 -60 Climbing Memphis Center
01:51PM 31.6786 -89.1608 314° West 148 170 8,000 -60 Descending Memphis Center
01:52PM 31.7053 -89.1936 314° West 149 171 8,100  Climbing Memphis Center
01:53PM 31.7417 -89.2308 319° Northwest 148 170 8,100  Level Memphis Center
01:54PM 31.7706 -89.2644 315° West 148 170 8,100 -60 Level Memphis Center
01:55PM 31.7969 -89.3000 311° West 146 168 8,000  Descending Memphis Center
01:56PM 31.8236 -89.3339 313° West 146 168 8,100  Climbing Memphis Center
01:57PM 31.8519 -89.3686 314° West 146 168 8,000 -300 Descending Memphis Center
01:59PM 31.8900 -89.4103 317° Northwest 155 178 7,500 -480 Descending Memphis Center
02:00PM 31.9217 -89.4475 315° West 160 184 7,100 -420 Descending Memphis Center
02:01PM 31.9519 -89.4844 314° West 160 184 6,700 -360 Descending Memphis Center
02:02PM 31.9831 -89.5194 316° Northwest 159 183 6,400 -300 Descending Memphis Center
02:03PM 32.0114 -89.5575 311° West 158 182 6,100 -300 Descending Memphis Center
02:04PM 32.0378 -89.5922 312° West 147 169 5,900 -300 Descending Memphis Center
02:05PM 32.0731 -89.6336 315° West 147 169 5,600 -300 Descending Memphis Center
02:06PM 32.1003 -89.6697 312° West 147 169 5,300 -360 Descending Memphis Center
02:07PM 32.1264 -89.7078 309° West 147 169 4,900 -360 Descending Memphis Center
02:08PM 32.1539 -89.7458 310° West 148 170 4,600 -300 Descending Memphis Center
02:09PM 32.1814 -89.7850 310° West 150 173 4,300 -360 Descending Memphis Center
02:10PM 32.2161 -89.8297 313° West 151 174 3,900 -360 Descending Memphis Center
02:11PM 32.2433 -89.8700 309° West 152 175 3,600 -300 Descending Memphis Center
02:12PM 32.2722 -89.9067 313° West 153 176 3,400 -300 Descending Memphis Center
02:13PM 32.3011 -89.9419 314° West 152 175 3,000 -600 Descending Memphis Center
02:14PM 32.3306 -89.9758 316° Northwest 152 175 2,200 -840 Descending Memphis Center
02:15PM 32.3689 -90.0186 317° Northwest 153 176 1,300 -900 Descending Memphis Center
02:17PM 32.4080 -90.0662 312° West  Level FlightAware Approximate
02:24PM 32.4333 -90.1000 312° West  Level FlightAware Approximate
02:25PM 32.4387 -90.1031 North  Level Estimated
02:26PM 32.4333 -90.1000 312° West  Level FlightAware Approximate